Weather at Airbase Pantanella [CLOSED]

Public forecast

Using degrees Celsius for public forecast. Weather courtesy of forecast.io.

Closest aviation weather report (METAR) to Airbase Pantanella

Report is more than 2 hours old.

Closest report is Foggia "Gino Lisa" Airport, 24.9 nm (46.0 km) NW.

2024/05/19 20:50 (retrieved 6 hours ago)

LIBF 192050Z 19003KT 9999 FEW015 SCT030 18/18 Q1011

Closest aviation forecast (TAF) to Airbase Pantanella

Forecast is more than 6 hours old.

Closest forecast is Foggia "Gino Lisa" Airport, 24.9 nm (46.0 km) NW.

2024/05/19 18:00 Ammendment (retrieved 8 hours ago)

TAF AMD LIBF 192210Z 1918/2018 CNL